createdAt,value
2023-03-30T00:02:05.744Z,9.50
2023-03-30T00:05:08.772Z,7.07
2023-03-30T00:08:11.142Z,6.82
2023-03-30T00:11:18.244Z,14.80
2023-03-30T00:14:22.980Z,6.88
2023-03-30T00:17:26.264Z,14.27
2023-03-30T00:20:28.371Z,24.75
2023-03-30T00:23:30.518Z,9.23
2023-03-30T00:26:32.576Z,9.43
2023-03-30T00:29:34.870Z,15.65
2023-03-30T00:32:40.024Z,17.83
2023-03-30T00:35:53.702Z,13.93
2023-03-30T00:38:59.443Z,8.80
2023-03-30T00:42:01.826Z,7.68
2023-03-30T00:45:19.560Z,10.50
2023-03-30T00:48:34.792Z,13.13
2023-03-30T00:51:44.541Z,9.15
2023-03-30T00:54:47.830Z,13.80
2023-03-30T00:57:51.457Z,11.40
2023-03-30T01:00:54.437Z,11.25
2023-03-30T01:04:02.422Z,8.88
2023-03-30T01:07:06.110Z,14.93
2023-03-30T01:10:09.294Z,17.67
2023-03-30T01:13:14.784Z,10.25
2023-03-30T01:16:45.871Z,13.18
2023-03-30T01:20:13.037Z,22.35
2023-03-30T01:23:35.518Z,9.75
2023-03-30T01:27:10.285Z,17.80
2023-03-30T01:30:33.625Z,10.20
2023-03-30T01:34:06.503Z,12.27
2023-03-30T01:37:32.623Z,9.65
2023-03-30T01:40:43.262Z,19.05
2023-03-30T01:43:56.442Z,17.38
2023-03-30T01:47:06.410Z,12.18
2023-03-30T01:50:21.845Z,16.30
2023-03-30T01:53:56.560Z,10.98
2023-03-30T01:57:34.276Z,13.73
2023-03-30T02:00:41.078Z,14.65
2023-03-30T02:03:48.024Z,13.35
2023-03-30T02:06:58.807Z,11.25
2023-03-30T02:10:04.952Z,10.32
2023-03-30T02:13:09.771Z,11.55
2023-03-30T02:16:22.182Z,13.25
2023-03-30T02:19:28.353Z,10.07
2023-03-30T02:22:32.606Z,12.93
2023-03-30T02:25:38.654Z,11.35
2023-03-30T02:28:41.126Z,8.82
2023-03-30T02:31:45.689Z,11.93
2023-03-30T02:35:18.929Z,15.77
2023-03-30T02:38:35.687Z,13.70
2023-03-30T02:42:05.076Z,13.50
2023-03-30T02:48:36.837Z,9.60
2023-03-30T02:51:53.141Z,10.60
2023-03-30T02:55:14.825Z,10.43
2023-03-30T02:58:43.698Z,15.30
2023-03-30T03:02:09.618Z,9.40
2023-03-30T03:05:14.859Z,13.73
2023-03-30T03:08:40.542Z,10.73
2023-03-30T03:11:44.886Z,15.83
2023-03-30T03:14:47.030Z,17.42
2023-03-30T03:17:51.728Z,13.93
2023-03-30T03:20:53.945Z,10.77
2023-03-30T03:23:58.458Z,9.82
2023-03-30T03:27:11.969Z,11.48
2023-03-30T03:30:36.146Z,14.57
2023-03-30T03:36:59.685Z,15.82
2023-03-30T03:40:06.440Z,17.48
2023-03-30T03:43:08.654Z,19.15
2023-03-30T03:46:11.598Z,11.98
2023-03-30T03:49:13.942Z,15.13
2023-03-30T03:52:16.121Z,14.38
2023-03-30T03:55:18.755Z,12.63
2023-03-30T03:58:27.431Z,8.57
2023-03-30T04:01:32.674Z,12.43
2023-03-30T04:04:38.524Z,16.95
2023-03-30T04:07:41.772Z,17.30
2023-03-30T04:10:44.402Z,16.75
2023-03-30T04:14:15.742Z,17.95
2023-03-30T04:17:50.087Z,18.88
2023-03-30T04:21:13.750Z,23.67
2023-03-30T04:24:29.906Z,32.88
2023-03-30T04:27:53.630Z,31.40
2023-03-30T04:31:10.797Z,35.00
2023-03-30T04:34:36.281Z,42.38
2023-03-30T04:38:02.497Z,30.23
2023-03-30T04:41:36.174Z,39.53
2023-03-30T04:45:07.151Z,48.15
2023-03-30T04:48:39.434Z,30.08
2023-03-30T04:52:00.691Z,32.33
2023-03-30T04:55:26.813Z,23.73
2023-03-30T04:59:04.367Z,32.35
2023-03-30T05:02:26.497Z,21.92
2023-03-30T05:05:55.806Z,25.77
2023-03-30T05:09:36.497Z,23.20
2023-03-30T05:13:01.763Z,25.10
2023-03-30T05:16:28.582Z,32.80
2023-03-30T05:20:10.254Z,21.10
2023-03-30T05:23:36.454Z,18.70
2023-03-30T05:27:13.145Z,23.02
2023-03-30T05:30:35.197Z,22.60
2023-03-30T05:34:11.137Z,26.80
2023-03-30T05:37:37.421Z,19.05
2023-03-30T05:40:58.834Z,20.45
2023-03-30T05:44:22.421Z,17.33
2023-03-30T05:47:35.039Z,23.13
2023-03-30T05:51:17.610Z,28.77
2023-03-30T05:54:36.550Z,17.30
2023-03-30T05:57:50.564Z,25.00
2023-03-30T06:01:16.333Z,21.02
2023-03-30T06:04:21.201Z,14.75
2023-03-30T06:07:32.251Z,15.68
2023-03-30T06:10:36.218Z,22.75
2023-03-30T06:13:38.977Z,12.63
2023-03-30T06:16:41.349Z,15.70
2023-03-30T06:19:45.267Z,18.75
2023-03-30T06:22:48.806Z,20.63
2023-03-30T06:25:59.631Z,22.33
2023-03-30T06:29:07.740Z,17.98
2023-03-30T06:32:10.437Z,24.15
2023-03-30T06:35:30.512Z,16.70
2023-03-30T06:38:36.195Z,16.70
2023-03-30T06:41:38.515Z,17.73
2023-03-30T06:44:40.789Z,14.63
2023-03-30T06:47:48.659Z,19.77
2023-03-30T06:50:54.705Z,23.75
2023-03-30T06:53:59.573Z,23.13
2023-03-30T06:57:04.366Z,14.65
2023-03-30T07:00:26.274Z,34.92
2023-03-30T07:03:48.884Z,25.65
2023-03-30T07:06:59.654Z,17.63
2023-03-30T07:10:53.084Z,13.68
2023-03-30T07:14:08.364Z,20.75
2023-03-30T07:17:13.335Z,15.45
2023-03-30T07:20:17.579Z,49.00
2023-03-30T07:23:46.117Z,17.83
2023-03-30T07:27:01.338Z,19.67
2023-03-30T07:30:20.673Z,26.55
2023-03-30T07:33:29.935Z,14.13
2023-03-30T07:36:34.109Z,16.60
2023-03-30T07:39:37.245Z,17.58
2023-03-30T07:42:43.408Z,13.30
2023-03-30T07:45:46.250Z,14.68
2023-03-30T07:48:56.223Z,15.30
2023-03-30T07:51:59.434Z,11.32
2023-03-30T07:55:12.482Z,13.32
2023-03-30T07:58:24.841Z,14.98
2023-03-30T08:01:28.124Z,11.63
2023-03-30T08:04:50.951Z,16.63
2023-03-30T08:08:01.244Z,13.02
2023-03-30T08:14:15.735Z,13.05
2023-03-30T08:17:19.424Z,22.75
2023-03-30T08:20:21.944Z,19.85
2023-03-30T08:23:25.317Z,12.95
2023-03-30T08:26:30.186Z,8.60
2023-03-30T08:29:33.955Z,10.65
2023-03-30T08:32:36.152Z,11.18
2023-03-30T08:35:38.352Z,8.88
2023-03-30T08:38:41.235Z,25.00
2023-03-30T08:41:58.206Z,10.48
2023-03-30T08:45:06.711Z,12.10
2023-03-30T08:48:25.096Z,18.30
2023-03-30T08:51:36.018Z,12.90
2023-03-30T08:54:38.246Z,9.50
2023-03-30T08:57:55.133Z,10.32
2023-03-30T09:01:15.062Z,6.03
2023-03-30T09:05:02.103Z,25.45
2023-03-30T09:08:18.480Z,18.10
2023-03-30T09:11:35.756Z,12.98
2023-03-30T09:14:46.662Z,9.27
2023-03-30T09:17:55.366Z,13.68
2023-03-30T09:21:01.696Z,14.35
2023-03-30T09:24:14.635Z,14.82
2023-03-30T09:27:25.416Z,11.23
2023-03-30T09:30:40.747Z,7.18
2023-03-30T09:33:54.908Z,8.30
2023-03-30T09:36:59.085Z,5.00
2023-03-30T09:40:48.575Z,8.40
2023-03-30T09:43:52.967Z,10.52
2023-03-30T09:46:59.124Z,12.07
2023-03-30T09:50:05.980Z,13.77
2023-03-30T09:53:35.249Z,17.23
2023-03-30T09:56:51.542Z,12.48
2023-03-30T09:59:56.017Z,15.02
2023-03-30T10:03:07.022Z,6.78
2023-03-30T10:06:19.891Z,12.85
2023-03-30T10:09:24.177Z,4.97
2023-03-30T10:12:28.572Z,10.07
2023-03-30T10:15:35.643Z,6.28
2023-03-30T10:18:41.579Z,12.32
2023-03-30T10:21:47.152Z,7.95
2023-03-30T10:24:55.550Z,8.02
2023-03-30T10:31:13.109Z,7.15
2023-03-30T10:34:21.026Z,4.45
2023-03-30T10:37:32.075Z,5.55
2023-03-30T10:40:42.357Z,9.00
2023-03-30T10:43:45.121Z,13.85
2023-03-30T10:46:49.117Z,10.82
2023-03-30T10:50:27.010Z,11.75
2023-03-30T10:53:43.119Z,6.32
2023-03-30T10:56:55.976Z,5.30
2023-03-30T11:00:23.091Z,4.95
2023-03-30T11:03:29.840Z,6.82
2023-03-30T11:06:42.305Z,3.88
2023-03-30T11:09:55.079Z,9.90
2023-03-30T11:13:06.017Z,10.40
2023-03-30T11:16:23.665Z,15.18
2023-03-30T11:19:47.824Z,6.10
2023-03-30T11:23:47.300Z,16.60
2023-03-30T11:27:14.317Z,13.85
2023-03-30T11:30:27.894Z,11.05
2023-03-30T11:33:46.875Z,7.82
2023-03-30T11:37:00.662Z,10.10
2023-03-30T11:40:16.728Z,6.15
2023-03-30T11:43:26.506Z,18.67
2023-03-30T11:47:09.693Z,7.20
2023-03-30T11:50:39.047Z,11.50
2023-03-30T11:54:12.214Z,9.32
2023-03-30T11:58:06.609Z,10.73
2023-03-30T12:01:24.431Z,22.23
2023-03-30T12:04:58.911Z,4.50
2023-03-30T12:08:10.607Z,6.32
2023-03-30T12:11:33.536Z,11.40
2023-03-30T12:14:45.901Z,7.43
2023-03-30T12:17:49.172Z,6.22
2023-03-30T12:21:17.919Z,12.98
2023-03-30T12:24:34.104Z,4.73
2023-03-30T12:27:37.686Z,14.38
2023-03-30T12:30:59.823Z,5.40
2023-03-30T12:34:16.193Z,11.55
2023-03-30T12:37:24.703Z,6.68
2023-03-30T12:40:29.737Z,3.97
2023-03-30T12:43:42.601Z,9.45
2023-03-30T12:47:12.602Z,8.98
2023-03-30T12:50:42.699Z,44.65
2023-03-30T12:54:25.217Z,7.25
2023-03-30T12:58:01.340Z,5.57
2023-03-30T13:01:22.638Z,3.65
2023-03-30T13:04:30.199Z,8.35
2023-03-30T13:07:36.580Z,10.00
2023-03-30T13:10:43.303Z,11.25
2023-03-30T13:14:30.458Z,12.65
2023-03-30T13:17:56.755Z,4.63
2023-03-30T13:21:17.172Z,3.65
2023-03-30T13:24:28.691Z,12.48
2023-03-30T13:27:36.873Z,8.80
2023-03-30T13:30:39.161Z,5.13
2023-03-30T13:33:52.845Z,7.22
2023-03-30T13:37:05.107Z,7.88
2023-03-30T13:40:44.108Z,6.82
2023-03-30T13:44:18.721Z,15.18
2023-03-30T13:47:52.699Z,8.15
2023-03-30T13:51:02.488Z,6.40
2023-03-30T13:54:12.574Z,4.55
2023-03-30T13:57:22.043Z,8.00
2023-03-30T14:00:48.659Z,6.72
2023-03-30T14:03:57.484Z,11.15
2023-03-30T14:07:25.876Z,12.68
2023-03-30T14:10:28.192Z,15.13
2023-03-30T14:13:30.460Z,4.07
2023-03-30T14:16:36.858Z,7.25
2023-03-30T14:19:52.838Z,18.08
2023-03-30T14:22:58.708Z,21.48
2023-03-30T14:26:04.100Z,16.67
2023-03-30T14:29:13.256Z,5.90
2023-03-30T14:32:17.370Z,27.92
2023-03-30T14:35:19.547Z,18.63
2023-03-30T14:38:34.894Z,28.00
2023-03-30T14:41:38.898Z,8.18
2023-03-30T14:44:41.851Z,19.17
2023-03-30T14:47:46.312Z,13.20
2023-03-30T14:50:49.277Z,15.38
2023-03-30T14:53:53.430Z,11.18
2023-03-30T14:57:01.138Z,8.98
2023-03-30T15:00:21.702Z,5.43
2023-03-30T15:03:33.513Z,5.38
2023-03-30T15:06:58.489Z,4.72
2023-03-30T15:11:34.539Z,8.27
2023-03-30T15:17:50.754Z,8.27
2023-03-30T15:20:56.850Z,10.85
2023-03-30T15:24:01.526Z,4.38
2023-03-30T15:27:07.017Z,11.55
2023-03-30T15:30:37.563Z,13.15
2023-03-30T15:34:01.636Z,9.60
2023-03-30T15:37:04.291Z,11.50
2023-03-30T15:40:28.586Z,11.32
2023-03-30T15:43:33.593Z,12.05
2023-03-30T15:46:36.523Z,11.27
2023-03-30T15:49:43.850Z,8.10
2023-03-30T15:52:46.916Z,17.13
2023-03-30T15:55:52.121Z,13.20
2023-03-30T15:58:54.564Z,18.08
2023-03-30T16:02:02.417Z,14.85
2023-03-30T16:05:08.299Z,10.32
2023-03-30T16:08:11.319Z,20.92
2023-03-30T16:11:16.372Z,24.20
2023-03-30T16:14:23.091Z,19.08
2023-03-30T16:17:25.862Z,35.10
2023-03-30T16:20:31.532Z,12.85
2023-03-30T16:23:33.937Z,25.25
2023-03-30T16:26:36.181Z,9.63
2023-03-30T16:29:38.348Z,15.35
2023-03-30T16:32:40.453Z,13.70
2023-03-30T16:35:49.974Z,17.30
2023-03-30T16:38:53.032Z,15.07
2023-03-30T16:41:56.379Z,13.57
2023-03-30T16:44:58.566Z,22.10
2023-03-30T16:48:01.429Z,12.05
2023-03-30T16:51:06.703Z,30.48
2023-03-30T16:54:29.480Z,12.30
2023-03-30T16:57:34.128Z,18.70
2023-03-30T17:00:43.221Z,12.00
2023-03-30T17:03:48.009Z,17.80
2023-03-30T17:06:50.313Z,33.15
2023-03-30T17:09:52.469Z,24.92
2023-03-30T17:12:55.845Z,29.83
2023-03-30T17:16:00.089Z,24.67
2023-03-30T17:19:02.525Z,17.88
2023-03-30T17:22:04.621Z,25.92
2023-03-30T17:25:09.054Z,21.13
2023-03-30T17:28:23.907Z,26.73
2023-03-30T17:31:26.406Z,25.65
2023-03-30T17:34:28.720Z,25.25
2023-03-30T17:42:56.620Z,25.65
2023-03-30T17:46:00.007Z,27.13
2023-03-30T17:49:19.326Z,38.03
2023-03-30T17:52:21.498Z,77.38
2023-03-30T17:55:39.866Z,35.20
2023-03-30T17:58:48.983Z,35.00
2023-03-30T18:01:56.555Z,39.47
2023-03-30T18:05:17.278Z,33.40
2023-03-30T18:08:21.588Z,43.50
2023-03-30T18:11:27.891Z,32.40
2023-03-30T18:14:32.382Z,38.08
2023-03-30T18:17:34.507Z,39.47
2023-03-30T18:20:44.297Z,34.35
2023-03-30T18:23:47.786Z,41.65
2023-03-30T18:26:51.612Z,45.08
2023-03-30T18:30:21.536Z,70.97
2023-03-30T18:33:25.355Z,43.42
2023-03-30T18:36:28.110Z,49.95
2023-03-30T18:39:30.232Z,54.97
2023-03-30T18:42:45.998Z,58.03
2023-03-30T18:45:50.014Z,52.45
2023-03-30T18:48:54.424Z,43.78
2023-03-30T18:51:58.505Z,51.90
2023-03-30T18:55:04.469Z,43.28
2023-03-30T18:58:22.229Z,38.20
2023-03-30T19:01:27.394Z,43.00
2023-03-30T19:04:32.216Z,30.52
2023-03-30T19:07:37.225Z,40.47
2023-03-30T19:10:42.676Z,34.33
2023-03-30T19:13:47.806Z,40.65
2023-03-30T19:16:49.942Z,53.10
2023-03-30T19:23:13.363Z,38.13
2023-03-30T19:26:18.815Z,33.60
2023-03-30T19:29:21.127Z,33.33
2023-03-30T19:32:26.156Z,37.05
2023-03-30T19:35:31.576Z,26.95
2023-03-30T19:38:35.248Z,28.13
2023-03-30T19:41:44.416Z,33.92
2023-03-30T19:44:55.344Z,37.80
2023-03-30T19:47:57.468Z,29.23
2023-03-30T19:51:02.021Z,31.60
2023-03-30T19:54:05.356Z,26.33
2023-03-30T19:57:18.939Z,33.17
2023-03-30T20:00:23.060Z,33.28
2023-03-30T20:03:31.231Z,36.92
2023-03-30T20:06:36.703Z,30.48
2023-03-30T20:09:42.991Z,30.73
2023-03-30T20:12:48.105Z,38.03
2023-03-30T20:15:58.066Z,39.60
2023-03-30T20:19:02.496Z,33.00
2023-03-30T20:22:04.627Z,31.70
2023-03-30T20:25:08.809Z,28.70
2023-03-30T20:31:57.951Z,25.48
2023-03-30T20:35:00.231Z,24.92
2023-03-30T20:38:08.228Z,27.23
2023-03-30T20:41:12.018Z,31.63
2023-03-30T20:44:14.341Z,25.48
2023-03-30T20:47:32.954Z,22.92
2023-03-30T20:50:35.293Z,29.50
2023-03-30T20:53:38.077Z,32.00
2023-03-30T20:56:46.913Z,29.58
2023-03-30T20:59:50.494Z,40.40
2023-03-30T21:02:52.874Z,41.08
2023-03-30T21:06:06.534Z,28.95
2023-03-30T21:09:10.112Z,33.03
2023-03-30T21:12:12.202Z,28.85
2023-03-30T21:15:15.313Z,27.60
2023-03-30T21:18:17.416Z,28.65
2023-03-30T21:21:19.808Z,25.92
2023-03-30T21:24:21.984Z,34.75
2023-03-30T21:27:28.034Z,23.15
2023-03-30T21:30:33.405Z,27.20
2023-03-30T21:33:36.635Z,30.30
2023-03-30T21:36:39.564Z,35.58
2023-03-30T21:39:42.091Z,41.60
2023-03-30T21:42:44.447Z,33.63
2023-03-30T21:45:55.740Z,35.28
2023-03-30T21:48:58.071Z,26.88
2023-03-30T21:52:00.370Z,21.30
2023-03-30T21:55:03.064Z,27.02
2023-03-30T21:58:05.511Z,26.85
2023-03-30T22:01:11.900Z,26.50
2023-03-30T22:04:15.102Z,35.28
2023-03-30T22:07:17.295Z,29.27
2023-03-30T22:10:19.570Z,26.98
2023-03-30T22:13:21.721Z,33.13
2023-03-30T22:16:29.242Z,32.75
2023-03-30T22:19:32.107Z,21.57
2023-03-30T22:22:34.707Z,29.58
2023-03-30T22:25:37.221Z,25.98
2023-03-30T22:28:40.113Z,35.80
2023-03-30T22:31:42.372Z,21.23
2023-03-30T22:34:44.647Z,20.83
2023-03-30T22:37:46.670Z,30.92
2023-03-30T22:40:48.737Z,26.95
2023-03-30T22:43:52.108Z,29.73
2023-03-30T22:46:54.453Z,31.42
2023-03-30T22:49:56.560Z,15.93
2023-03-30T22:52:58.670Z,19.25
2023-03-30T22:56:01.656Z,23.63
2023-03-30T22:59:03.845Z,25.55
2023-03-30T23:02:05.903Z,19.50
2023-03-30T23:05:09.060Z,14.85
2023-03-30T23:08:12.387Z,27.30
2023-03-30T23:11:14.506Z,22.02
2023-03-30T23:14:16.757Z,22.52
2023-03-30T23:17:18.828Z,20.50
2023-03-30T23:20:22.229Z,19.20
2023-03-30T23:23:24.517Z,25.50
2023-03-30T23:26:27.605Z,21.02
2023-03-30T23:29:29.632Z,33.65
2023-03-30T23:32:32.112Z,31.00
2023-03-30T23:35:34.555Z,25.08
2023-03-30T23:38:37.610Z,35.20
2023-03-30T23:41:39.762Z,36.05
2023-03-30T23:44:41.834Z,31.67
2023-03-30T23:47:44.184Z,24.15
2023-03-30T23:50:46.670Z,35.55
2023-03-30T23:53:54.549Z,30.77
2023-03-30T23:56:57.834Z,18.63
2023-03-30T23:59:59.902Z,18.58
